Tolovana Park, Oregon
Current Conditions -  °F | °C
As of 11:55 AM on Wednesday 28 Jan 2015 (Local Time) from KAST Reporting Station
Overcast Overcast  
Wind Chill: 53°   Ceiling: 6500
Heat Index: 53°   Visibility: 10mi
Dew Point: 48°   Wind: 7mph
Humidity: 83%   Direction: 40°NE
Pressure: 30.34"   Gusts: NA
Location:  45.87°N, 123.96°W
Report Text: KAST 281955Z AUTO 04006KT 10SM OVC065 12/09 A3034 RMK AO2 SLP272 T01170089
Loading
Personal Weather Stations






























Interactive Weather Map New forecast layout! Learn more

10-Day Weather Forecast

Advertisements
Track Severe Weather on mobile